createdAt,value
2018-10-17T00:00:58.854Z,100.00
2018-10-17T00:02:04.759Z,100.00
2018-10-17T00:03:11.143Z,100.00
2018-10-17T00:04:17.453Z,100.00
2018-10-17T00:05:23.802Z,100.00
2018-10-17T00:06:30.141Z,100.00
2018-10-17T00:07:36.492Z,100.00
2018-10-17T00:08:42.447Z,100.00
2018-10-17T00:09:48.779Z,100.00
2018-10-17T00:10:55.031Z,100.00
2018-10-17T00:12:01.321Z,100.00
2018-10-17T00:13:07.665Z,100.00
2018-10-17T00:14:14.196Z,100.00
2018-10-17T00:15:20.442Z,100.00
2018-10-17T00:16:26.760Z,100.00
2018-10-17T00:17:33.065Z,100.00
2018-10-17T00:18:39.300Z,100.00
2018-10-17T00:19:45.622Z,100.00
2018-10-17T00:20:51.931Z,100.00
2018-10-17T00:21:58.208Z,100.00
2018-10-17T00:23:04.619Z,100.00
2018-10-17T00:24:11.163Z,100.00
2018-10-17T00:25:17.564Z,100.00
2018-10-17T00:26:23.880Z,100.00
2018-10-17T00:27:30.206Z,99.90
2018-10-17T00:28:36.042Z,100.00
2018-10-17T00:29:42.395Z,100.00
2018-10-17T00:30:48.714Z,100.00
2018-10-17T00:31:55.025Z,100.00
2018-10-17T00:33:01.368Z,100.00
2018-10-17T00:34:07.698Z,100.00
2018-10-17T00:35:14.290Z,100.00
2018-10-17T00:36:20.812Z,100.00
2018-10-17T00:37:27.123Z,100.00
2018-10-17T00:38:33.532Z,100.00
2018-10-17T00:39:39.828Z,100.00
2018-10-17T00:40:46.123Z,100.00
2018-10-17T00:41:52.440Z,100.00
2018-10-17T00:42:58.704Z,100.00
2018-10-17T00:44:04.603Z,100.00
2018-10-17T00:45:10.645Z,100.00
2018-10-17T00:46:16.969Z,100.00
2018-10-17T00:47:23.286Z,100.00
2018-10-17T00:48:29.652Z,100.00
2018-10-17T00:49:35.960Z,100.00
2018-10-17T00:50:42.534Z,100.00
2018-10-17T00:51:48.879Z,100.00
2018-10-17T00:52:55.198Z,100.00
2018-10-17T00:54:01.772Z,100.00
2018-10-17T00:55:07.336Z,100.00
2018-10-17T00:56:13.844Z,100.00
2018-10-17T00:57:20.083Z,100.00
2018-10-17T00:58:26.369Z,100.00
2018-10-17T00:59:32.630Z,100.00
2018-10-17T01:00:38.966Z,100.00
2018-10-17T01:01:43.419Z,100.00
2018-10-17T01:02:49.822Z,100.00
2018-10-17T01:03:56.149Z,100.00
2018-10-17T01:05:02.499Z,100.00
2018-10-17T01:06:08.702Z,100.00
2018-10-17T01:07:14.976Z,100.00
2018-10-17T01:08:21.140Z,100.00
2018-10-17T01:09:27.478Z,100.00
2018-10-17T01:10:33.816Z,100.00
2018-10-17T01:11:40.210Z,100.00
2018-10-17T01:12:46.517Z,100.00
2018-10-17T01:13:52.850Z,100.00
2018-10-17T01:14:59.146Z,100.00
2018-10-17T01:16:04.766Z,100.00
2018-10-17T01:17:11.203Z,100.00
2018-10-17T01:18:17.808Z,100.00
2018-10-17T01:19:24.089Z,100.00
2018-10-17T01:20:30.414Z,100.00
2018-10-17T01:21:36.394Z,100.00
2018-10-17T01:22:42.012Z,100.00
2018-10-17T01:23:48.442Z,100.00
2018-10-17T01:24:54.756Z,100.00
2018-10-17T01:26:00.971Z,100.00
2018-10-17T01:27:07.344Z,100.00
2018-10-17T01:28:13.680Z,100.00
2018-10-17T01:29:19.972Z,100.00
2018-10-17T01:30:25.919Z,100.00
2018-10-17T01:31:31.595Z,100.00
2018-10-17T01:32:37.931Z,100.00
2018-10-17T01:33:44.012Z,100.00
2018-10-17T01:34:50.300Z,100.00
2018-10-17T01:35:56.603Z,100.00
2018-10-17T01:37:02.883Z,100.00
2018-10-17T01:38:09.478Z,100.00
2018-10-17T01:39:15.876Z,100.00
2018-10-17T01:40:22.213Z,100.00
2018-10-17T01:41:28.086Z,100.00
2018-10-17T01:42:34.746Z,100.00
2018-10-17T01:43:41.015Z,100.00
2018-10-17T01:44:47.315Z,100.00
2018-10-17T01:45:53.643Z,100.00
2018-10-17T01:47:00.012Z,100.00
2018-10-17T01:48:05.856Z,100.00
2018-10-17T01:49:12.306Z,100.00
2018-10-17T01:50:18.873Z,100.00
2018-10-17T01:51:25.201Z,100.00
2018-10-17T01:52:31.487Z,100.00
2018-10-17T01:53:37.838Z,100.00
2018-10-17T01:54:44.101Z,100.00
2018-10-17T01:55:50.429Z,100.00
2018-10-17T01:56:56.732Z,100.00
2018-10-17T01:58:03.060Z,100.00
2018-10-17T01:59:09.451Z,100.00
2018-10-17T02:00:15.979Z,100.00
2018-10-17T02:01:22.287Z,100.00
2018-10-17T02:02:28.611Z,100.00
2018-10-17T02:03:34.871Z,100.00
2018-10-17T02:04:41.134Z,100.00
2018-10-17T02:05:47.108Z,100.00
2018-10-17T02:06:53.512Z,100.00
2018-10-17T02:08:00.071Z,100.00
2018-10-17T02:09:05.484Z,100.00
2018-10-17T02:10:11.567Z,100.00
2018-10-17T02:11:17.928Z,100.00
2018-10-17T02:12:24.507Z,100.00
2018-10-17T02:13:30.813Z,100.00
2018-10-17T02:14:37.147Z,100.00
2018-10-17T02:15:43.437Z,100.00
2018-10-17T02:16:49.765Z,100.00
2018-10-17T02:17:56.201Z,100.00
2018-10-17T02:19:02.548Z,100.00
2018-10-17T02:20:09.040Z,100.00
2018-10-17T02:21:15.347Z,100.00
2018-10-17T02:22:21.760Z,100.00
2018-10-17T02:23:28.063Z,100.00
2018-10-17T02:24:34.358Z,100.00
2018-10-17T02:25:40.693Z,100.00
2018-10-17T02:26:47.063Z,100.00
2018-10-17T02:27:53.371Z,100.00
2018-10-17T02:28:59.761Z,100.00
2018-10-17T02:30:05.643Z,100.00
2018-10-17T02:31:12.263Z,100.00
2018-10-17T02:32:18.850Z,100.00
2018-10-17T02:33:25.143Z,100.00
2018-10-17T02:34:31.243Z,100.00
2018-10-17T02:35:37.551Z,100.00
2018-10-17T02:36:43.892Z,100.00
2018-10-17T02:37:50.176Z,100.00
2018-10-17T02:38:56.497Z,100.00
2018-10-17T02:40:02.786Z,100.00
2018-10-17T02:41:09.039Z,100.00
2018-10-17T02:42:15.771Z,100.00
2018-10-17T02:43:22.048Z,100.00
2018-10-17T02:44:28.384Z,100.00
2018-10-17T02:45:34.675Z,100.00
2018-10-17T02:46:41.006Z,100.00
2018-10-17T02:47:47.306Z,100.00
2018-10-17T02:48:53.565Z,100.00
2018-10-17T02:50:00.116Z,100.00
2018-10-17T02:51:05.879Z,100.00
2018-10-17T02:52:12.264Z,100.00
2018-10-17T02:53:18.575Z,100.00
2018-10-17T02:54:25.180Z,100.00
2018-10-17T02:55:31.418Z,100.00
2018-10-17T02:56:37.693Z,100.00
2018-10-17T02:57:44.037Z,100.00
2018-10-17T02:58:50.315Z,100.00
2018-10-17T02:59:56.630Z,100.00
2018-10-17T03:01:02.961Z,100.00
2018-10-17T03:02:09.507Z,100.00
2018-10-17T03:03:15.794Z,100.00
2018-10-17T03:04:22.106Z,100.00
2018-10-17T03:05:28.449Z,100.00
2018-10-17T03:06:34.706Z,100.00
2018-10-17T03:07:40.678Z,100.00
2018-10-17T03:08:47.018Z,100.00
2018-10-17T03:09:53.378Z,100.00
2018-10-17T03:10:59.843Z,100.00
2018-10-17T03:12:06.174Z,100.00
2018-10-17T03:13:12.719Z,100.00
2018-10-17T03:14:19.199Z,100.00
2018-10-17T03:15:25.495Z,100.00
2018-10-17T03:16:31.863Z,100.00
2018-10-17T03:17:38.164Z,100.00
2018-10-17T03:18:43.750Z,100.00
2018-10-17T03:19:50.146Z,100.00
2018-10-17T03:20:56.131Z,100.00
2018-10-17T03:22:02.481Z,100.00
2018-10-17T03:23:08.922Z,100.00
2018-10-17T03:24:15.385Z,100.00
2018-10-17T03:25:21.704Z,100.00
2018-10-17T03:26:28.005Z,100.00
2018-10-17T03:27:34.367Z,100.00
2018-10-17T03:28:40.632Z,100.00
2018-10-17T03:29:46.992Z,100.00
2018-10-17T03:30:53.284Z,100.00
2018-10-17T03:31:59.875Z,100.00
2018-10-17T03:33:06.239Z,100.00
2018-10-17T03:34:12.529Z,100.00
2018-10-17T03:35:18.892Z,100.00
2018-10-17T03:36:25.407Z,100.00
2018-10-17T03:37:31.773Z,100.00
2018-10-17T03:38:38.054Z,100.00
2018-10-17T03:39:44.400Z,100.00
2018-10-17T03:40:50.684Z,100.00
2018-10-17T03:41:57.088Z,100.00
2018-10-17T03:43:03.468Z,100.00
2018-10-17T03:44:10.022Z,100.00
2018-10-17T03:45:16.334Z,100.00
2018-10-17T03:46:22.570Z,100.00
2018-10-17T03:47:28.907Z,100.00
2018-10-17T03:48:35.274Z,100.00
2018-10-17T03:49:41.678Z,100.00
2018-10-17T03:50:48.211Z,100.00
2018-10-17T03:51:54.543Z,100.00
2018-10-17T03:53:00.937Z,100.00
2018-10-17T03:54:07.407Z,100.00
2018-10-17T03:55:13.758Z,100.00
2018-10-17T03:56:20.301Z,100.00
2018-10-17T03:57:26.609Z,100.00
2018-10-17T03:58:32.915Z,100.00
2018-10-17T03:59:39.303Z,100.00
2018-10-17T04:00:45.825Z,100.00
2018-10-17T04:01:52.053Z,100.00
2018-10-17T04:02:58.464Z,100.00
2018-10-17T04:04:04.605Z,100.00
2018-10-17T04:05:11.156Z,100.00
2018-10-17T04:06:17.693Z,100.00
2018-10-17T04:07:24.060Z,100.00
2018-10-17T04:08:30.138Z,100.00
2018-10-17T04:09:36.452Z,100.00
2018-10-17T04:10:42.902Z,100.00
2018-10-17T04:11:49.111Z,100.00
2018-10-17T04:12:55.473Z,100.00
2018-10-17T04:14:01.981Z,100.00
2018-10-17T04:15:07.987Z,100.00
2018-10-17T04:16:14.359Z,100.00
2018-10-17T04:17:20.643Z,100.00
2018-10-17T04:18:26.982Z,100.00
2018-10-17T04:19:33.220Z,100.00
2018-10-17T04:20:39.581Z,100.00
2018-10-17T04:21:46.174Z,100.00
2018-10-17T04:22:52.281Z,100.00
2018-10-17T04:23:58.588Z,100.00
2018-10-17T04:25:04.497Z,100.00
2018-10-17T04:26:11.051Z,100.00
2018-10-17T04:27:17.017Z,100.00
2018-10-17T04:28:23.908Z,100.00
2018-10-17T04:29:30.171Z,100.00
2018-10-17T04:30:36.479Z,100.00
2018-10-17T04:31:42.793Z,100.00
2018-10-17T04:32:50.177Z,100.00
2018-10-17T04:33:56.647Z,100.00
2018-10-17T04:35:02.971Z,100.00
2018-10-17T04:36:09.508Z,100.00
2018-10-17T04:37:16.143Z,100.00
2018-10-17T04:38:22.480Z,100.00
2018-10-17T04:39:28.792Z,100.00
2018-10-17T04:40:35.117Z,100.00
2018-10-17T04:41:41.725Z,100.00
2018-10-17T04:42:48.162Z,100.00
2018-10-17T04:43:54.489Z,100.00
2018-10-17T04:45:00.762Z,100.00
2018-10-17T04:46:07.109Z,100.00
2018-10-17T04:47:13.473Z,100.00
2018-10-17T04:48:19.797Z,100.00
2018-10-17T04:49:26.117Z,100.00
2018-10-17T04:50:32.415Z,100.00
2018-10-17T04:51:38.651Z,100.00
2018-10-17T04:52:44.952Z,100.00
2018-10-17T04:53:51.350Z,100.00
2018-10-17T04:54:59.047Z,100.00
2018-10-17T04:56:05.818Z,100.00
2018-10-17T04:57:12.049Z,100.00
2018-10-17T04:58:18.059Z,100.00
2018-10-17T04:59:24.449Z,100.00
2018-10-17T05:00:30.809Z,100.00
2018-10-17T05:01:37.203Z,100.00
2018-10-17T05:02:43.496Z,100.00
2018-10-17T05:03:50.099Z,100.00
2018-10-17T05:04:56.365Z,100.00
2018-10-17T05:06:02.965Z,100.00
2018-10-17T05:07:09.276Z,100.00
2018-10-17T05:08:15.844Z,100.00
2018-10-17T05:09:22.208Z,100.00
2018-10-17T05:10:28.497Z,100.00
2018-10-17T05:11:35.001Z,100.00
2018-10-17T05:12:41.318Z,100.00
2018-10-17T05:13:47.657Z,100.00
2018-10-17T05:14:53.941Z,100.00
2018-10-17T05:16:00.267Z,100.00
2018-10-17T05:17:06.494Z,100.00
2018-10-17T05:18:12.777Z,100.00
2018-10-17T05:19:19.108Z,100.00
2018-10-17T05:20:25.405Z,100.00
2018-10-17T05:21:31.756Z,100.00
2018-10-17T05:22:38.081Z,100.00
2018-10-17T05:23:44.409Z,100.00
2018-10-17T05:24:51.234Z,100.00
2018-10-17T05:25:57.591Z,100.00
2018-10-17T05:27:03.874Z,100.00
2018-10-17T05:28:10.229Z,100.00
2018-10-17T05:29:16.739Z,100.00
2018-10-17T05:30:23.510Z,100.00
2018-10-17T05:31:29.441Z,100.00
2018-10-17T05:32:36.078Z,100.00
2018-10-17T05:33:43.772Z,100.00
2018-10-17T05:34:49.992Z,100.00
2018-10-17T05:35:56.221Z,100.00
2018-10-17T05:37:02.611Z,100.00
2018-10-17T05:38:09.205Z,100.00
2018-10-17T05:39:15.932Z,100.00
2018-10-17T05:40:22.202Z,100.00
2018-10-17T05:41:28.120Z,100.00
2018-10-17T05:42:34.610Z,100.00
2018-10-17T05:43:40.939Z,100.00
2018-10-17T05:44:47.251Z,100.00
2018-10-17T05:45:53.637Z,100.00
2018-10-17T05:46:59.966Z,100.00
2018-10-17T05:48:06.477Z,100.00
2018-10-17T05:49:12.892Z,100.00
2018-10-17T05:50:19.413Z,100.00
2018-10-17T05:51:25.708Z,100.00
2018-10-17T05:52:32.029Z,100.00
2018-10-17T05:53:38.353Z,100.00
2018-10-17T05:54:44.672Z,100.00
2018-10-17T05:55:51.055Z,100.00
2018-10-17T05:56:57.385Z,100.00
2018-10-17T05:58:03.464Z,100.00
2018-10-17T05:59:09.968Z,100.00
2018-10-17T06:00:16.362Z,100.00
2018-10-17T06:01:22.885Z,100.00
2018-10-17T06:02:29.273Z,100.00
2018-10-17T06:03:35.765Z,100.00
2018-10-17T06:04:42.028Z,100.00
2018-10-17T06:05:48.296Z,100.00
2018-10-17T06:06:54.647Z,100.00
2018-10-17T06:08:01.271Z,100.00
2018-10-17T06:09:06.965Z,100.00
2018-10-17T06:10:13.383Z,100.00
2018-10-17T06:11:19.889Z,100.00
2018-10-17T06:12:26.275Z,100.00
2018-10-17T06:13:32.590Z,100.00
2018-10-17T06:14:38.976Z,100.00
2018-10-17T06:15:45.216Z,100.00
2018-10-17T06:16:51.588Z,100.00
2018-10-17T06:17:58.125Z,100.00
2018-10-17T06:19:04.293Z,100.00
2018-10-17T06:20:10.921Z,100.00
2018-10-17T06:21:17.159Z,100.00
2018-10-17T06:22:23.473Z,100.00
2018-10-17T06:23:29.779Z,100.00
2018-10-17T06:24:36.091Z,100.00
2018-10-17T06:25:42.424Z,100.00
2018-10-17T06:26:48.526Z,100.00
2018-10-17T06:27:54.826Z,100.00
2018-10-17T06:29:01.192Z,100.00
2018-10-17T06:30:07.083Z,100.00
2018-10-17T06:31:13.508Z,100.00
2018-10-17T06:32:20.107Z,100.00
2018-10-17T06:33:26.382Z,100.00
2018-10-17T06:34:32.760Z,100.00
2018-10-17T06:35:39.350Z,100.00
2018-10-17T06:36:45.641Z,100.00
2018-10-17T06:37:51.949Z,100.00
2018-10-17T06:38:58.262Z,100.00
2018-10-17T06:40:04.125Z,100.00
2018-10-17T06:41:10.368Z,100.00
2018-10-17T06:42:16.880Z,100.00
2018-10-17T06:43:23.163Z,100.00
2018-10-17T06:44:29.677Z,100.00
2018-10-17T06:45:35.952Z,100.00
2018-10-17T06:46:41.875Z,100.00
2018-10-17T06:47:48.232Z,100.00
2018-10-17T06:48:54.580Z,100.00
2018-10-17T06:50:01.121Z,100.00
2018-10-17T06:51:07.682Z,100.00
2018-10-17T06:52:14.278Z,100.00
2018-10-17T06:53:20.534Z,100.00
2018-10-17T06:54:26.674Z,100.00
2018-10-17T06:55:33.167Z,100.00
2018-10-17T06:56:39.474Z,100.00
2018-10-17T06:57:45.760Z,100.00
2018-10-17T06:58:52.098Z,100.00
2018-10-17T06:59:58.485Z,100.00
2018-10-17T07:01:04.551Z,100.00
2018-10-17T07:02:10.952Z,100.00
2018-10-17T07:03:17.541Z,100.00
2018-10-17T07:04:23.863Z,100.00
2018-10-17T07:05:30.175Z,100.00
2018-10-17T07:06:36.562Z,100.00
2018-10-17T07:07:42.559Z,100.00
2018-10-17T07:08:48.925Z,100.00
2018-10-17T07:09:55.211Z,100.00
2018-10-17T07:11:01.593Z,100.00
2018-10-17T07:12:08.022Z,100.00
2018-10-17T07:13:14.421Z,100.00
2018-10-17T07:14:20.944Z,100.00
2018-10-17T07:15:27.359Z,100.00
2018-10-17T07:16:33.917Z,100.00
2018-10-17T07:17:39.882Z,100.00
2018-10-17T07:18:46.198Z,100.00
2018-10-17T07:19:52.525Z,100.00
2018-10-17T07:20:58.859Z,100.00
2018-10-17T07:22:05.142Z,100.00
2018-10-17T07:23:11.528Z,100.00
2018-10-17T07:24:18.065Z,100.00
2018-10-17T07:25:24.382Z,100.00
2018-10-17T07:26:30.392Z,100.00
2018-10-17T07:27:36.693Z,100.00
2018-10-17T07:28:43.078Z,100.00
2018-10-17T07:29:49.799Z,100.00
2018-10-17T07:30:56.390Z,100.00
2018-10-17T07:32:02.993Z,100.00
2018-10-17T07:33:09.073Z,100.00
2018-10-17T07:34:15.393Z,100.00
2018-10-17T07:35:21.773Z,100.00
2018-10-17T07:36:28.038Z,100.00
2018-10-17T07:37:34.357Z,100.00
2018-10-17T07:38:40.685Z,100.00
2018-10-17T07:39:47.092Z,100.00
2018-10-17T07:40:53.391Z,99.32
2018-10-17T07:41:59.692Z,98.83
2018-10-17T07:43:05.862Z,98.86
2018-10-17T07:44:12.198Z,98.13
2018-10-17T07:45:18.496Z,97.48
2018-10-17T07:46:24.844Z,97.59
2018-10-17T07:47:31.120Z,98.27
2018-10-17T07:48:37.455Z,98.74
2018-10-17T07:49:43.552Z,98.96
2018-10-17T07:50:49.785Z,99.08
2018-10-17T07:51:56.101Z,99.38
2018-10-17T07:53:02.443Z,99.11
2018-10-17T07:54:09.036Z,97.23
2018-10-17T07:55:15.566Z,96.84
2018-10-17T07:56:21.958Z,95.09
2018-10-17T07:57:28.256Z,94.94
2018-10-17T07:58:34.551Z,95.35
2018-10-17T07:59:40.888Z,94.50
2018-10-17T08:00:47.460Z,93.07
2018-10-17T08:01:53.721Z,92.79
2018-10-17T08:03:00.009Z,92.25
2018-10-17T08:04:05.929Z,92.08
2018-10-17T08:05:12.357Z,92.03
2018-10-17T08:06:18.431Z,92.70
2018-10-17T08:07:24.847Z,93.41
2018-10-17T08:08:31.185Z,93.49
2018-10-17T08:09:37.499Z,93.74
2018-10-17T08:10:43.785Z,93.89
2018-10-17T08:11:50.126Z,94.26
2018-10-17T08:12:56.408Z,94.84
2018-10-17T08:14:02.349Z,95.12
2018-10-17T08:15:08.129Z,95.72
2018-10-17T08:16:14.581Z,95.75
2018-10-17T08:17:20.833Z,94.49
2018-10-17T08:18:27.149Z,93.93
2018-10-17T08:19:33.461Z,92.82
2018-10-17T08:20:39.798Z,92.83
2018-10-17T08:21:46.121Z,92.25
2018-10-17T08:22:52.410Z,92.80
2018-10-17T08:23:58.724Z,92.71
2018-10-17T08:25:04.480Z,92.35
2018-10-17T08:26:10.821Z,92.13
2018-10-17T08:27:17.176Z,92.22
2018-10-17T08:28:23.799Z,92.23
2018-10-17T08:29:29.749Z,92.19
2018-10-17T08:30:36.168Z,91.30
2018-10-17T08:31:42.502Z,90.46
2018-10-17T08:32:48.814Z,89.46
2018-10-17T08:33:55.100Z,89.22
2018-10-17T08:35:01.418Z,89.26
2018-10-17T08:36:07.833Z,91.02
2018-10-17T08:37:14.915Z,91.98
2018-10-17T08:38:20.972Z,92.64
2018-10-17T08:39:27.281Z,92.25
2018-10-17T08:40:33.539Z,91.69
2018-10-17T08:41:39.883Z,90.40
2018-10-17T08:42:46.313Z,89.68
2018-10-17T08:43:52.609Z,89.96
2018-10-17T08:44:58.840Z,89.33
2018-10-17T08:46:04.765Z,89.07
2018-10-17T08:47:11.198Z,89.15
2018-10-17T08:48:17.513Z,88.41
2018-10-17T08:49:23.852Z,88.96
2018-10-17T08:50:30.285Z,87.98
2018-10-17T08:51:36.765Z,87.34
2018-10-17T08:52:43.053Z,86.72
2018-10-17T08:53:48.998Z,86.32
2018-10-17T08:54:55.349Z,86.51
2018-10-17T08:56:01.840Z,86.91
2018-10-17T08:57:08.298Z,87.20
2018-10-17T08:58:14.659Z,87.50
2018-10-17T08:59:20.889Z,88.05
2018-10-17T09:00:26.850Z,87.56
2018-10-17T09:01:33.181Z,88.05
2018-10-17T09:02:39.449Z,87.80
2018-10-17T09:03:45.741Z,87.38
2018-10-17T09:04:51.993Z,86.93
2018-10-17T09:05:58.403Z,86.86
2018-10-17T09:07:04.543Z,86.76
2018-10-17T09:08:10.864Z,86.94
2018-10-17T09:09:17.096Z,87.33
2018-10-17T09:10:23.421Z,87.28
2018-10-17T09:11:29.884Z,87.05
2018-10-17T09:12:36.460Z,88.15
2018-10-17T09:13:42.951Z,88.50
2018-10-17T09:14:49.223Z,87.75
2018-10-17T09:15:55.504Z,88.31
2018-10-17T09:17:02.143Z,88.46
2018-10-17T09:18:08.388Z,89.03
2018-10-17T09:19:14.983Z,89.40
2018-10-17T09:20:21.565Z,89.04
2018-10-17T09:21:28.479Z,89.26
2018-10-17T09:22:34.640Z,89.71
2018-10-17T09:23:41.190Z,88.50
2018-10-17T09:24:47.528Z,88.36
2018-10-17T09:25:53.825Z,87.36
2018-10-17T09:27:00.741Z,86.40
2018-10-17T09:28:07.192Z,85.72
2018-10-17T09:29:13.901Z,85.78
2018-10-17T09:30:19.961Z,85.46
2018-10-17T09:31:26.097Z,85.06
2018-10-17T09:32:32.429Z,86.11
2018-10-17T09:33:38.714Z,86.29
2018-10-17T09:34:45.382Z,86.99
2018-10-17T09:35:51.737Z,87.15
2018-10-17T09:36:57.930Z,85.54
2018-10-17T09:38:04.295Z,85.19
2018-10-17T09:39:10.607Z,84.67
2018-10-17T09:40:16.976Z,84.40
2018-10-17T09:41:23.528Z,84.24
2018-10-17T09:42:29.777Z,85.03
2018-10-17T09:43:36.041Z,84.57
2018-10-17T09:44:42.375Z,83.94
2018-10-17T09:45:48.673Z,84.84
2018-10-17T09:46:54.967Z,84.57
2018-10-17T09:48:00.967Z,83.76
2018-10-17T09:49:07.496Z,84.67
2018-10-17T09:50:13.803Z,85.38
2018-10-17T09:51:20.468Z,85.50
2018-10-17T09:52:26.442Z,85.26
2018-10-17T09:53:32.438Z,85.45
2018-10-17T09:54:38.761Z,84.57
2018-10-17T09:55:45.061Z,84.62
2018-10-17T09:56:51.497Z,84.03
2018-10-17T09:57:57.833Z,83.37
2018-10-17T09:59:04.195Z,82.65
2018-10-17T10:00:09.675Z,82.35
2018-10-17T10:01:15.952Z,82.57
2018-10-17T10:02:22.573Z,83.61
2018-10-17T10:03:29.070Z,83.41
2018-10-17T10:04:35.460Z,82.65
2018-10-17T10:05:41.435Z,82.54
2018-10-17T10:06:47.777Z,83.42
2018-10-17T10:07:54.073Z,82.71
2018-10-17T10:09:00.313Z,82.04
2018-10-17T10:10:05.997Z,81.94
2018-10-17T10:11:12.554Z,82.45
2018-10-17T10:12:18.883Z,82.75
2018-10-17T10:13:25.466Z,83.93
2018-10-17T10:14:31.752Z,84.80
2018-10-17T10:15:38.061Z,84.78
2018-10-17T10:16:44.376Z,84.76
2018-10-17T10:17:50.730Z,84.97
2018-10-17T10:18:56.987Z,84.53
2018-10-17T10:20:03.361Z,84.03
2018-10-17T10:21:09.719Z,83.70
2018-10-17T10:22:16.130Z,83.34
2018-10-17T10:23:22.699Z,83.35
2018-10-17T10:24:28.964Z,83.64
2018-10-17T10:25:35.215Z,83.84
2018-10-17T10:26:41.508Z,83.69
2018-10-17T10:27:47.850Z,81.47
2018-10-17T10:28:54.239Z,81.41
2018-10-17T10:30:00.628Z,81.95
2018-10-17T10:31:06.948Z,82.62
2018-10-17T10:32:13.270Z,82.03
2018-10-17T10:33:19.587Z,81.06
2018-10-17T10:34:25.880Z,79.45
2018-10-17T10:35:32.223Z,79.81
2018-10-17T10:36:38.518Z,79.39
2018-10-17T10:37:44.818Z,79.38
2018-10-17T10:38:51.141Z,79.78
2018-10-17T10:39:57.515Z,78.96
2018-10-17T10:41:04.107Z,78.94
2018-10-17T10:42:10.416Z,79.14
2018-10-17T10:43:16.995Z,79.21
2018-10-17T10:44:22.964Z,78.12
2018-10-17T10:45:29.328Z,78.82
2018-10-17T10:46:35.624Z,78.35
2018-10-17T10:47:43.063Z,77.74
2018-10-17T10:48:49.501Z,78.47
2018-10-17T10:49:55.833Z,77.77
2018-10-17T10:51:02.516Z,77.98
2018-10-17T10:52:08.977Z,78.58
2018-10-17T10:53:15.249Z,77.68
2018-10-17T10:54:21.607Z,78.04
2018-10-17T10:55:28.098Z,77.23
2018-10-17T10:56:34.376Z,76.62
2018-10-17T10:57:40.701Z,76.03
2018-10-17T10:58:47.275Z,76.50
2018-10-17T10:59:53.687Z,77.07
2018-10-17T11:00:59.814Z,76.96
2018-10-17T11:02:05.794Z,75.45
2018-10-17T11:03:12.421Z,74.61
2018-10-17T11:04:18.985Z,74.36
2018-10-17T11:05:25.359Z,73.24
2018-10-17T11:06:31.883Z,72.71
2018-10-17T11:07:39.198Z,72.84
2018-10-17T11:08:45.588Z,71.08
2018-10-17T11:09:51.848Z,71.07
2018-10-17T11:10:58.212Z,70.65
2018-10-17T11:12:04.485Z,71.53
2018-10-17T11:13:10.897Z,71.63
2018-10-17T11:14:17.027Z,71.73
2018-10-17T11:15:23.506Z,72.69
2018-10-17T11:16:29.849Z,72.59
2018-10-17T11:17:36.137Z,72.05
2018-10-17T11:18:42.506Z,72.65
2018-10-17T11:19:48.758Z,72.60
2018-10-17T11:20:55.076Z,72.00
2018-10-17T11:22:01.432Z,71.62
2018-10-17T11:23:08.078Z,72.23
2018-10-17T11:24:14.668Z,72.24
2018-10-17T11:25:20.951Z,71.80
2018-10-17T11:26:26.904Z,71.89
2018-10-17T11:27:32.592Z,71.74
2018-10-17T11:28:38.878Z,72.11
2018-10-17T11:29:45.184Z,72.11
2018-10-17T11:30:51.480Z,69.59
2018-10-17T11:31:57.845Z,69.59
2018-10-17T11:33:04.419Z,69.86
2018-10-17T11:34:11.032Z,68.44
2018-10-17T11:35:17.306Z,68.76
2018-10-17T11:36:23.849Z,68.53
2018-10-17T11:37:30.144Z,68.80
2018-10-17T11:38:36.685Z,69.41
2018-10-17T11:39:43.016Z,69.15
2018-10-17T11:40:49.358Z,66.75
2018-10-17T11:41:55.972Z,65.44
2018-10-17T11:43:02.250Z,65.73
2018-10-17T11:44:08.572Z,66.62
2018-10-17T11:45:14.908Z,65.68
2018-10-17T11:46:21.402Z,63.88
2018-10-17T11:47:27.715Z,64.86
2018-10-17T11:48:34.003Z,65.78
2018-10-17T11:49:40.342Z,64.73
2018-10-17T11:50:46.625Z,64.71
2018-10-17T11:51:52.949Z,65.66
2018-10-17T11:52:58.988Z,66.12
2018-10-17T11:54:05.232Z,66.93
2018-10-17T11:55:11.561Z,66.81
2018-10-17T11:56:17.877Z,66.80
2018-10-17T11:57:24.183Z,67.21
2018-10-17T11:58:30.519Z,67.30
2018-10-17T11:59:36.860Z,67.26
2018-10-17T12:00:43.441Z,66.72
2018-10-17T12:01:49.687Z,66.12
2018-10-17T12:02:56.015Z,66.56
2018-10-17T12:04:02.436Z,66.70
2018-10-17T12:05:08.342Z,67.12
2018-10-17T12:06:14.783Z,66.71
2018-10-17T12:07:21.278Z,66.21
2018-10-17T12:08:27.609Z,66.28
2018-10-17T12:09:34.161Z,65.73
2018-10-17T12:10:40.510Z,65.48
2018-10-17T12:11:46.506Z,65.68
2018-10-17T12:12:52.868Z,65.88
2018-10-17T12:13:59.189Z,64.90
2018-10-17T12:15:04.812Z,63.13
2018-10-17T12:16:11.173Z,62.61
2018-10-17T12:17:17.084Z,61.57
2018-10-17T12:18:23.408Z,62.02
2018-10-17T12:19:29.766Z,62.30
2018-10-17T12:20:35.773Z,60.67
2018-10-17T12:21:41.865Z,59.74
2018-10-17T12:22:48.138Z,60.31
2018-10-17T12:23:54.539Z,61.05
2018-10-17T12:25:01.100Z,60.92
2018-10-17T12:26:07.385Z,60.58
2018-10-17T12:27:13.727Z,61.07
2018-10-17T12:28:19.690Z,60.37
2018-10-17T12:29:25.912Z,61.53
2018-10-17T12:30:32.222Z,59.48
2018-10-17T12:31:38.431Z,59.61
2018-10-17T12:32:44.747Z,60.20
2018-10-17T12:33:50.618Z,60.61
2018-10-17T12:34:57.041Z,59.55
2018-10-17T12:36:03.216Z,58.89
2018-10-17T12:37:09.104Z,59.43
2018-10-17T12:38:15.384Z,59.07
2018-10-17T12:39:21.683Z,58.40
2018-10-17T12:40:28.313Z,57.25
2018-10-17T12:41:34.794Z,57.11
2018-10-17T12:42:41.066Z,57.56
2018-10-17T12:43:47.339Z,56.46
2018-10-17T12:44:53.722Z,57.60
2018-10-17T12:45:59.978Z,57.47
2018-10-17T12:47:05.651Z,58.30
2018-10-17T12:48:12.144Z,58.61
2018-10-17T12:49:18.502Z,58.68
2018-10-17T12:50:24.955Z,58.82
2018-10-17T12:51:31.445Z,58.09
2018-10-17T12:52:37.845Z,58.41
2018-10-17T12:53:44.317Z,58.45
2018-10-17T12:54:50.608Z,58.10
2018-10-17T12:55:56.521Z,58.48
2018-10-17T12:57:03.101Z,58.20
2018-10-17T12:58:09.408Z,58.58
2018-10-17T12:59:15.568Z,57.80
2018-10-17T13:00:22.164Z,57.39
2018-10-17T13:01:28.808Z,58.06
2018-10-17T13:02:34.992Z,57.35
2018-10-17T13:03:41.278Z,57.17
2018-10-17T13:04:47.589Z,56.93
2018-10-17T13:05:53.926Z,56.80
2018-10-17T13:07:00.249Z,56.78
2018-10-17T13:08:06.446Z,55.87
2018-10-17T13:09:12.512Z,55.73
2018-10-17T13:10:18.872Z,55.34
2018-10-17T13:11:25.208Z,54.31
2018-10-17T13:12:31.745Z,55.12
2018-10-17T13:13:37.783Z,55.53
2018-10-17T13:14:44.059Z,56.63
2018-10-17T13:15:50.596Z,57.01
2018-10-17T13:16:56.821Z,57.08
2018-10-17T13:18:03.425Z,55.44
2018-10-17T13:19:09.803Z,56.03
2018-10-17T13:20:15.863Z,55.60
2018-10-17T13:21:22.193Z,56.04
2018-10-17T13:22:28.483Z,55.77
2018-10-17T13:23:34.721Z,55.06
2018-10-17T13:24:41.175Z,54.46
2018-10-17T13:25:47.648Z,54.70
2018-10-17T13:26:53.929Z,55.42
2018-10-17T13:28:00.238Z,55.37
2018-10-17T13:29:05.901Z,55.43
2018-10-17T13:30:12.176Z,55.40
2018-10-17T13:31:18.642Z,55.05
2018-10-17T13:32:25.190Z,55.57
2018-10-17T13:33:31.515Z,54.38
2018-10-17T13:34:37.810Z,52.63
2018-10-17T13:35:43.950Z,52.83
2018-10-17T13:36:50.221Z,53.93
2018-10-17T13:37:56.541Z,53.29
2018-10-17T13:39:02.632Z,52.70
2018-10-17T13:40:08.972Z,52.77
2018-10-17T13:41:15.394Z,53.81
2018-10-17T13:42:21.933Z,53.97
2018-10-17T13:43:28.427Z,54.56
2018-10-17T13:44:34.766Z,53.87
2018-10-17T13:45:41.062Z,54.79
2018-10-17T13:46:47.347Z,54.63
2018-10-17T13:47:53.655Z,54.33
2018-10-17T13:49:00.342Z,54.48
2018-10-17T13:50:06.200Z,53.12
2018-10-17T13:51:12.616Z,52.88
2018-10-17T13:52:18.902Z,52.83
2018-10-17T13:53:25.212Z,53.18
2018-10-17T13:54:31.573Z,53.05
2018-10-17T13:55:38.127Z,53.25
2018-10-17T13:56:44.350Z,52.99
2018-10-17T13:57:50.578Z,53.67
2018-10-17T13:58:56.927Z,54.35
2018-10-17T14:00:03.432Z,53.41